KPTV

Details ICAO KPTV
Name PORTERVILLE MUNI
Region United States
Timezone America/Los_Angeles (UTC-7.0)
Plans Departing 10
Arriving 5
Stats Elevation 442 ft / 135 m (AMSL)
Location 36.029607° -119.062732°
Runways 1
Magnetic Variation 12.510° E
Sunrise 2018-05-26 12:44:43 UTC / 2018-05-26 05:44:43 Local
Sunset 2018-05-27 03:04:50 UTC / 2018-05-26 20:04:50 Local
Advertisement - Login to hide

Runways

ID Width Length Bearing (true) Bearing (mag) Surface Threshold Offset Overrun Length
12 150 ft / 46 m 5,909 ft / 1,801 m 135.40° 122.89° Asphalt 0 ft / 0 m 0 ft / 0 m
30 150 ft / 46 m 5,909 ft / 1,801 m 315.41° 302.90° Asphalt 0 ft / 0 m 0 ft / 0 m

Map

Weather


0- 5 10 15 20 25 30 35+ Temperature / ° C

Clouds and Precipitation
Forecast for 2018-05-26 12:00 UTC. Updated 5 hours ago

Ground ~20,000 ft ~40,000 ft Winds

METAR

KPTV 261556Z AUTO 32009KT 10SM SCT045 BKN055 BKN090 16/11 A3007 RMK AO2 SLP193 T01610106

TAF

Not found

Frequencies

Recorded 134.62 MHz AWOS 3
Approach 120.50 MHz BAKERSFIELD APP/DEP
Unicom 122.80 MHz CTAF/UNICOM
Warning: Do not use this data for real-world aviation or navigation. No guarantee of current accuracy is given.